Terminal Aerodrome Forecast
Issued by NWS Grand Junction, CO

Home | Current Version | Previous Version | Text Only | Print | Product List | Glossary On
Versions: 1 2 3 4 5 6 7 8 9 10 11 12
000
FTUS45 KGJT 161120
TAFGJT
TAF
KGJT 161120Z 1612/1712 09008KT P6SM BKN200
     FM161700 15005KT P6SM OVC200
     FM162000 28004KT P6SM OVC200
     FM170200 33004KT P6SM BKN200=

USA.gov is the U.S. government's official web portal to all federal, state and local government web resources and services.